Fort Lauderdale, FL (33316)

4:28 PM EST on December 19, 2014 (GMT -0500)
Lauderdale Harbors | Change Station
CLOSE
Current Station
Personal Weather Station
Location: Fort Lauderdale, FL
Elevation: 16 ft
Nearby Weather Stations

Elev 16 ft 26.11 °N, 80.13 °W | Updated 3 minutes ago

Partly Cloudy
Partly Cloudy
76.7 °F
Feels Like 79 °F
N
2.0
Wind Variable Wind from SE
Gusts 2.0 mph

Today
High -- | Low -- °F
--% Chance of Precip.
Yesterday
High -- | Low -- °F
Precip. -- in
7:02 AM 5:32 PM
Waning Crescent, 6% visible
Pressure 30.02 in
Visibility 10.0 miles
Clouds Few 4200 ft
Heat Index 79 °F
Dew Point 63 °F
Humidity 63%
Rainfall 0.00 in
Snow Depth Not available.
UV 1 out of 12
Pollen 3.40 out of 12
Air Quality Not available.
Flu Activity Not available.
METAR KFLL 192053Z 12010KT 10SM FEW042 23/16 A3002 RMK AO2 SLP166 T02330156 56010

More Conditions Fewer Conditions

Pressure 30.02 in
Visibility 10.0 miles
Clouds Few 4200 ft
Heat Index 79 °F
Dew Point 63 °F
Humidity 63%
Rainfall 0.00 in
Snow Depth Not available.
UV 1 out of 12
Pollen 3.40 out of 12
Air Quality Not available.
Flu Activity Not available.
METAR KFLL 192053Z 12010KT 10SM FEW042 23/16 A3002 RMK AO2 SLP166 T02330156 56010

More Conditions Fewer Conditions

10-Day Weather Forecast

Almanac

Astronomy

Dec. 19, 2014 Rise Set
Actual Time
Civil Twilight
Nautical Twilight
Astronomical Twilight
Moon
Length of Visible Light
Length of Day
Tomorrow will be .
, % of the Moon is Illuminated

Today's Extremes

State Highs State Lows

Community

WunderPhotos

Upload Photos

1,779,057 photos uploaded!

WunderBlogs® & News

Nearby

Air Quality

  Air Quality AQ Index Pollutant
Not available.

Snow Depth

Station Depth Elevation

Earthquake Activity

City Distance Mag. Time & Date
Minimum magnitude displayed is 2.5.

Coastal Water Temperatures

Place Temperature

Nearby Weather Stations